Time;durP1;ratioP1;P1;durP2;ratioP2;P2;SDS_P1;SDS_P2;PMS_P1;PMS_P2;Temp;Humidity;BMP_temperature;BMP_pressure;BME280_temperature;BME280_humidity;BME280_pressure;Samples;Min_cycle;Max_cycle;Signal;HPM_P1;HPM_P2
2023/05/05 00:00:12;;;;;;;3.83;3.10;;;16.60;87.80;;;;;;2090803;28;20029;-71
2023/05/05 00:01:12;;;;;;;5.43;3.20;;;16.60;86.80;;;;;;2093087;28;20111;-71
2023/05/05 00:02:13;;;;;;;2.38;2.17;;;16.60;85.90;;;;;;2090524;28;20020;-72
2023/05/05 00:03:13;;;;;;;4.63;2.75;;;16.60;85.20;;;;;;2090328;28;20060;-72
2023/05/05 00:04:14;;;;;;;3.80;2.80;;;16.70;84.70;;;;;;2090645;28;20519;-71
2023/05/05 00:05:14;;;;;;;3.92;2.90;;;16.70;84.60;;;;;;2091329;28;20502;-71
2023/05/05 00:06:15;;;;;;;3.13;2.65;;;16.70;84.40;;;;;;2089489;28;20056;-71
2023/05/05 00:07:15;;;;;;;7.50;2.90;;;16.70;83.80;;;;;;2092173;28;20040;-71
2023/05/05 00:08:16;;;;;;;3.05;2.60;;;16.80;84.60;;;;;;2093027;28;20035;-71
2023/05/05 00:09:17;;;;;;;5.80;2.80;;;16.80;85.60;;;;;;2094271;28;20024;-71
2023/05/05 00:10:17;;;;;;;3.08;2.53;;;16.80;85.10;;;;;;2093434;28;20024;-72
2023/05/05 00:11:18;;;;;;;4.05;2.63;;;16.80;84.50;;;;;;2090735;28;20025;-71
2023/05/05 00:12:19;;;;;;;4.15;2.90;;;16.80;84.70;;;;;;2092314;28;20029;-71
2023/05/05 00:13:20;;;;;;;3.15;2.70;;;16.80;85.20;;;;;;2092177;28;20025;-71
2023/05/05 00:14:21;;;;;;;4.05;2.20;;;16.90;85.40;;;;;;2092879;28;20032;-71
2023/05/05 00:15:21;;;;;;;2.78;2.58;;;16.80;85.20;;;;;;2090078;28;20384;-71
2023/05/05 00:16:22;;;;;;;3.55;2.55;;;16.90;84.90;;;;;;2092491;28;20025;-71
2023/05/05 00:17:22;;;;;;;8.85;2.70;;;16.90;84.70;;;;;;2093241;28;20029;-71
2023/05/05 00:18:23;;;;;;;3.15;2.50;;;16.90;85.10;;;;;;2094617;28;20028;-71
2023/05/05 00:19:23;;;;;;;4.93;2.88;;;16.90;85.20;;;;;;2096865;28;20020;-71
2023/05/05 00:20:24;;;;;;;3.58;2.65;;;16.90;85.30;;;;;;2092331;28;20024;-71
2023/05/05 00:21:26;;;;;;;4.75;2.53;;;16.90;85.80;;;;;;2094520;28;20105;-71
2023/05/05 00:22:27;;;;;;;3.35;2.45;;;16.90;85.90;;;;;;2095263;28;20012;-71
2023/05/05 00:23:28;;;;;;;3.17;2.80;;;16.90;86.60;;;;;;2093232;28;20024;-71
2023/05/05 00:24:28;;;;;;;3.72;2.50;;;16.90;87.10;;;;;;2095439;28;20516;-71
2023/05/05 00:25:29;;;;;;;2.85;2.58;;;16.90;86.30;;;;;;2094457;28;20031;-71
2023/05/05 00:26:29;;;;;;;3.08;2.75;;;16.90;85.90;;;;;;2094178;28;20028;-71
2023/05/05 00:27:30;;;;;;;2.63;2.42;;;16.90;86.70;;;;;;2092719;28;20017;-71
2023/05/05 00:28:30;;;;;;;4.25;2.92;;;16.90;86.70;;;;;;2096417;28;20024;-71
2023/05/05 00:29:31;;;;;;;3.03;2.60;;;16.90;85.90;;;;;;2094654;28;20047;-71
2023/05/05 00:30:33;;;;;;;3.25;2.53;;;16.90;85.00;;;;;;2090279;28;20438;-71
2023/05/05 00:31:33;;;;;;;4.07;2.53;;;16.90;84.30;;;;;;2095100;28;20067;-71
2023/05/05 00:32:34;;;;;;;3.00;2.30;;;16.90;84.80;;;;;;2093541;28;20044;-71
2023/05/05 00:33:34;;;;;;;2.88;2.53;;;16.90;85.30;;;;;;2093638;28;20021;-71
2023/05/05 00:34:35;;;;;;;3.08;2.60;;;16.90;85.80;;;;;;2094127;28;20051;-71
2023/05/05 00:35:35;;;;;;;2.80;2.60;;;16.90;87.00;;;;;;2095165;28;20083;-71
2023/05/05 00:36:36;;;;;;;4.93;2.45;;;16.90;86.80;;;;;;2092084;28;20544;-71
2023/05/05 00:37:36;;;;;;;4.05;2.58;;;16.90;86.30;;;;;;2091614;28;20631;-71
2023/05/05 00:38:37;;;;;;;3.08;2.40;;;16.90;85.30;;;;;;2092669;28;20107;-71
2023/05/05 00:39:37;;;;;;;2.70;2.50;;;16.90;85.80;;;;;;2093406;28;20483;-71
2023/05/05 00:40:38;;;;;;;2.97;2.58;;;16.90;86.20;;;;;;2094725;28;20471;-71
2023/05/05 00:41:39;;;;;;;3.30;2.60;;;16.90;86.70;;;;;;2094448;28;20025;-71
2023/05/05 00:42:42;;;;;;;3.70;2.60;;;16.90;87.00;;;;;;2092321;28;20437;-71
2023/05/05 00:43:42;;;;;;;3.75;2.50;;;16.90;86.90;;;;;;2095620;28;20021;-71
2023/05/05 00:44:43;;;;;;;3.38;3.05;;;16.90;87.80;;;;;;2093860;28;20017;-71
2023/05/05 00:45:46;;;;;;;5.75;2.58;;;16.90;88.20;;;;;;2093382;28;20132;-71
2023/05/05 00:46:47;;;;;;;4.03;2.60;;;16.90;88.20;;;;;;2092627;28;20028;-71
2023/05/05 00:47:52;;;;;;;3.58;2.78;;;16.90;88.70;;;;;;2094637;28;20032;-71
2023/05/05 00:48:53;;;;;;;3.85;2.70;;;16.90;89.10;;;;;;2092806;28;20087;-71
2023/05/05 00:49:54;;;;;;;2.85;2.45;;;16.90;88.80;;;;;;2093165;28;20065;-71
2023/05/05 00:50:55;;;;;;;3.22;2.58;;;16.90;89.60;;;;;;2091952;28;20043;-71
2023/05/05 00:51:56;;;;;;;3.30;2.75;;;16.90;90.00;;;;;;2092396;28;20040;-71
2023/05/05 00:53:01;;;;;;;3.83;2.60;;;16.90;90.20;;;;;;2093475;28;20027;-71
2023/05/05 00:54:01;;;;;;;4.28;2.67;;;16.90;90.40;;;;;;2093711;28;20020;-71
2023/05/05 00:55:03;;;;;;;3.47;3.10;;;16.90;90.60;;;;;;2094311;28;20032;-71
2023/05/05 00:56:04;;;;;;;3.03;2.72;;;16.90;91.00;;;;;;2092404;28;20033;-71
2023/05/05 00:57:05;;;;;;;3.10;2.40;;;16.90;91.10;;;;;;2093077;28;20124;-71
2023/05/05 00:58:06;;;;;;;3.45;2.70;;;16.90;90.90;;;;;;2091512;28;20036;-71
2023/05/05 00:59:07;;;;;;;3.10;2.58;;;16.90;91.00;;;;;;2092252;28;20116;-71
2023/05/05 01:00:09;;;;;;;3.03;2.72;;;16.90;91.10;;;;;;2093652;28;20025;-71
2023/05/05 01:01:14;;;;;;;2.70;2.50;;;16.90;91.00;;;;;;2095421;28;20063;-71
2023/05/05 01:02:14;;;;;;;3.92;2.70;;;16.90;91.30;;;;;;2091477;28;20021;-70
2023/05/05 01:03:15;;;;;;;3.92;2.78;;;16.90;91.60;;;;;;2091408;28;20017;-70
2023/05/05 01:04:16;;;;;;;3.08;2.70;;;16.90;91.90;;;;;;2093552;28;20020;-71
2023/05/05 01:05:18;;;;;;;4.32;3.17;;;16.90;92.30;;;;;;2093305;28;20021;-71
2023/05/05 01:06:45;;;;;;;4.35;2.80;;;16.90;92.80;;;;;;2092176;28;20592;-71
2023/05/05 01:08:02;;;;;;;5.15;2.70;;;16.90;93.20;;;;;;2092848;28;20503;-70
2023/05/05 01:09:07;;;;;;;2.88;2.67;;;16.90;92.30;;;;;;2092178;28;20610;-70
2023/05/05 01:10:29;;;;;;;2.72;2.53;;;16.80;92.50;;;;;;2093954;28;20021;-71
2023/05/05 01:11:48;;;;;;;3.58;2.65;;;16.80;92.70;;;;;;2094438;28;20136;-71
2023/05/05 01:13:04;;;;;;;3.70;2.70;;;16.80;92.70;;;;;;2092097;28;20531;-71
2023/05/05 01:14:16;;;;;;;4.60;2.58;;;16.80;93.00;;;;;;2093921;28;20039;-71
2023/05/05 01:15:33;;;;;;;9.15;3.20;;;16.80;93.60;;;;;;2092735;28;20025;-70
2023/05/05 01:16:37;;;;;;;5.72;3.00;;;16.80;94.50;;;;;;2092021;28;20020;-71
2023/05/05 01:17:49;;;;;;;3.10;2.70;;;16.80;94.40;;;;;;2092274;28;20017;-70
2023/05/05 01:19:22;;;;;;;2.92;2.70;;;16.80;94.60;;;;;;2093850;28;20522;-70
2023/05/05 01:20:32;;;;;;;9.13;2.90;;;16.80;95.20;;;;;;2093026;28;20079;-70
2023/05/05 01:21:40;;;;;;;4.43;3.10;;;16.80;94.90;;;;;;2092284;28;20017;-71
2023/05/05 01:22:55;;;;;;;2.83;2.63;;;16.80;95.10;;;;;;2092872;28;20477;-71
2023/05/05 01:24:09;;;;;;;4.50;2.80;;;16.70;95.80;;;;;;2092884;28;20033;-70
2023/05/05 01:25:49;;;;;;;4.00;2.95;;;16.70;96.10;;;;;;2094619;28;20973;-71
2023/05/05 01:27:11;;;;;;;3.63;2.70;;;16.70;96.60;;;;;;2092718;28;20798;-71
2023/05/05 01:28:36;;;;;;;3.30;3.00;;;16.70;96.70;;;;;;2090877;28;20040;-71
2023/05/05 01:30:07;;;;;;;3.97;2.85;;;16.70;96.60;;;;;;2094505;28;20029;-71
2023/05/05 01:31:50;;;;;;;3.30;3.00;;;16.70;96.80;;;;;;2074983;28;20042;-70
2023/05/05 01:32:54;;;;;;;3.55;3.25;;;16.70;98.00;;;;;;2092898;28;20024;-71
2023/05/05 01:34:01;;;;;;;8.95;3.22;;;16.70;97.40;;;;;;2093535;28;20123;-71
2023/05/05 01:35:12;;;;;;;5.65;3.35;;;16.70;97.70;;;;;;2092782;28;20030;-71
2023/05/05 01:36:22;;;;;;;4.55;3.10;;;16.60;97.70;;;;;;2094773;28;20028;-71
2023/05/05 01:37:27;;;;;;;4.68;2.90;;;16.60;98.00;;;;;;2096842;28;20028;-71
2023/05/05 01:38:42;;;;;;;3.88;3.00;;;16.70;98.20;;;;;;2096221;28;20069;-71
2023/05/05 01:39:43;;;;;;;4.55;3.20;;;16.70;98.50;;;;;;2094159;28;20024;-70
2023/05/05 01:40:47;;;;;;;5.05;2.83;;;16.60;97.90;;;;;;2092758;28;20465;-71
2023/05/05 01:41:50;;;;;;;6.28;3.13;;;16.70;98.20;;;;;;2090816;28;20021;-70
2023/05/05 01:42:53;;;;;;;4.68;2.90;;;16.60;98.30;;;;;;2093272;28;20028;-71
2023/05/05 01:43:57;;;;;;;4.00;3.60;;;16.60;98.00;;;;;;2096115;28;20148;-71
2023/05/05 01:44:59;;;;;;;4.65;3.13;;;16.60;98.00;;;;;;2093073;28;20765;-70
2023/05/05 01:46:01;;;;;;;3.22;2.70;;;16.70;97.30;;;;;;2093001;28;20040;-70
2023/05/05 01:47:03;;;;;;;3.38;2.75;;;16.60;96.70;;;;;;2091833;28;20032;-70
2023/05/05 01:48:06;;;;;;;3.00;2.80;;;16.70;96.70;;;;;;2093862;28;20016;-70
2023/05/05 01:49:10;;;;;;;3.45;2.88;;;16.70;96.40;;;;;;2093129;28;20423;-71
2023/05/05 01:50:13;;;;;;;3.63;3.08;;;16.70;96.60;;;;;;2092165;28;20025;-70
2023/05/05 01:51:16;;;;;;;3.00;2.70;;;16.70;96.50;;;;;;2094559;28;20021;-70
2023/05/05 01:52:17;;;;;;;3.75;2.75;;;16.70;96.30;;;;;;2095849;28;20036;-70
2023/05/05 01:53:19;;;;;;;2.92;2.60;;;16.70;96.60;;;;;;2093279;28;20021;-71
2023/05/05 01:54:23;;;;;;;5.28;2.88;;;16.70;96.50;;;;;;2093331;28;20071;-71
2023/05/05 01:55:25;;;;;;;4.72;2.70;;;16.70;96.20;;;;;;2095284;28;20024;-71
2023/05/05 01:56:26;;;;;;;4.10;3.33;;;16.70;95.60;;;;;;2096180;28;20047;-71
2023/05/05 01:57:30;;;;;;;4.15;3.22;;;16.70;95.80;;;;;;2091162;28;20473;-71
2023/05/05 01:58:32;;;;;;;5.88;2.85;;;16.70;96.10;;;;;;2091702;28;20090;-71
2023/05/05 01:59:34;;;;;;;4.75;3.28;;;16.70;96.20;;;;;;2084265;28;20477;-71
2023/05/05 02:00:35;;;;;;;3.50;3.20;;;16.70;96.20;;;;;;2083368;28;20059;-71
2023/05/05 02:01:40;;;;;;;4.53;2.97;;;16.80;96.30;;;;;;2093845;28;20025;-70
2023/05/05 02:02:43;;;;;;;4.35;2.90;;;16.80;96.50;;;;;;2093029;28;20158;-70
2023/05/05 02:03:46;;;;;;;4.22;3.03;;;16.80;96.30;;;;;;2092630;28;20023;-70
2023/05/05 02:04:48;;;;;;;3.78;3.30;;;16.80;96.10;;;;;;2093810;28;20033;-70
2023/05/05 02:05:51;;;;;;;3.03;2.72;;;16.80;95.90;;;;;;2092863;28;20021;-70
2023/05/05 02:06:55;;;;;;;3.78;2.90;;;16.80;96.30;;;;;;2092220;28;20020;-71
2023/05/05 02:07:59;;;;;;;5.35;3.30;;;16.80;96.50;;;;;;2093428;28;20075;-71
2023/05/05 02:09:01;;;;;;;3.83;3.20;;;16.80;96.50;;;;;;2091675;28;20028;-71
2023/05/05 02:10:03;;;;;;;5.18;3.55;;;16.80;96.30;;;;;;2092758;28;20024;-71
2023/05/05 02:11:05;;;;;;;4.78;3.17;;;16.80;96.40;;;;;;2089040;28;20025;-70
2023/05/05 02:12:07;;;;;;;4.53;3.05;;;16.80;96.50;;;;;;2092827;28;20013;-71
2023/05/05 02:13:11;;;;;;;4.32;3.30;;;16.90;96.60;;;;;;2095331;28;20025;-71
2023/05/05 02:14:12;;;;;;;3.38;2.97;;;16.90;96.90;;;;;;2090892;28;20035;-70
2023/05/05 02:15:15;;;;;;;8.82;3.35;;;16.90;96.90;;;;;;2093705;28;20581;-71
2023/05/05 02:16:17;;;;;;;3.53;3.22;;;16.90;97.10;;;;;;2092718;28;20459;-71
2023/05/05 02:17:20;;;;;;;4.80;3.63;;;16.90;97.00;;;;;;2092243;28;20025;-70
2023/05/05 02:18:23;;;;;;;3.75;3.35;;;16.90;97.10;;;;;;2092448;28;20108;-71
2023/05/05 02:19:29;;;;;;;3.90;3.47;;;16.90;96.70;;;;;;2091593;28;20452;-70
2023/05/05 02:20:31;;;;;;;6.28;3.58;;;17.00;96.70;;;;;;2091405;28;20029;-71
2023/05/05 02:21:32;;;;;;;5.85;3.53;;;17.00;96.40;;;;;;2094845;28;20528;-70
2023/05/05 02:22:33;;;;;;;3.80;3.13;;;17.00;96.30;;;;;;2091441;28;20029;-71
2023/05/05 02:23:35;;;;;;;4.05;3.65;;;17.00;96.20;;;;;;2091759;28;20059;-70
2023/05/05 02:24:35;;;;;;;3.67;3.22;;;17.10;96.40;;;;;;2094151;28;20491;-71
2023/05/05 02:25:44;;;;;;;5.82;3.50;;;17.10;96.30;;;;;;2091217;28;20071;-70
2023/05/05 02:26:48;;;;;;;4.85;3.17;;;17.10;96.60;;;;;;2092004;28;20033;-71
2023/05/05 02:27:54;;;;;;;6.45;3.63;;;17.10;96.40;;;;;;2091771;28;20031;-70
2023/05/05 02:29:18;;;;;;;3.63;3.30;;;17.10;96.40;;;;;;2092586;28;20695;-71
2023/05/05 02:30:19;;;;;;;6.93;4.10;;;17.10;96.60;;;;;;2091032;28;20105;-71
2023/05/05 02:31:22;;;;;;;3.67;3.33;;;17.10;96.50;;;;;;2091188;28;20020;-71
2023/05/05 02:32:36;;;;;;;6.25;3.70;;;17.10;96.70;;;;;;2096585;28;20100;-70
2023/05/05 02:33:39;;;;;;;6.75;3.90;;;17.10;96.90;;;;;;2092380;28;20729;-70
2023/05/05 02:34:42;;;;;;;5.63;4.32;;;17.20;97.00;;;;;;2092015;28;20029;-71
2023/05/05 02:35:45;;;;;;;7.88;4.53;;;17.20;97.30;;;;;;2093400;28;20512;-71
2023/05/05 02:36:50;;;;;;;5.65;4.22;;;17.20;97.40;;;;;;2092942;28;20029;-70
2023/05/05 02:37:58;;;;;;;4.80;4.32;;;17.20;97.70;;;;;;2092826;28;20021;-70
2023/05/05 02:39:06;;;;;;;6.15;4.35;;;17.20;98.20;;;;;;2093175;28;20036;-70
2023/05/05 02:40:07;;;;;;;11.23;4.75;;;17.20;98.40;;;;;;2091230;28;20075;-71
2023/05/05 02:41:12;;;;;;;8.25;5.43;;;17.20;98.50;;;;;;2092324;28;20029;-71
2023/05/05 02:42:18;;;;;;;5.03;4.53;;;17.30;98.60;;;;;;2093461;28;20202;-71
2023/05/05 02:43:21;;;;;;;5.55;4.97;;;17.30;98.80;;;;;;2092357;28;20039;-71
2023/05/05 02:44:24;;;;;;;7.43;4.60;;;17.30;98.80;;;;;;2091921;28;20019;-71
2023/05/05 02:45:27;;;;;;;5.95;4.60;;;17.30;99.00;;;;;;2091791;28;20024;-70
2023/05/05 02:46:27;;;;;;;7.43;4.80;;;17.30;99.10;;;;;;2093252;28;20037;-71
2023/05/05 02:47:37;;;;;;;5.18;4.55;;;17.30;99.20;;;;;;2093947;28;20043;-70
2023/05/05 02:48:38;;;;;;;5.13;4.63;;;17.30;99.70;;;;;;2093264;28;20054;-71
2023/05/05 02:49:38;;;;;;;5.35;4.55;;;17.30;99.50;;;;;;2090863;28;20501;-70
2023/05/05 02:50:39;;;;;;;5.38;4.45;;;17.30;99.70;;;;;;2091173;28;20016;-71
2023/05/05 02:51:39;;;;;;;4.85;4.30;;;17.30;99.90;;;;;;2092624;28;20059;-70
2023/05/05 02:52:40;;;;;;;6.10;4.60;;;17.30;99.90;;;;;;2091637;28;20020;-70
2023/05/05 02:53:41;;;;;;;7.35;5.07;;;17.30;99.90;;;;;;2090055;28;20021;-71
2023/05/05 02:54:41;;;;;;;4.90;4.35;;;17.30;99.90;;;;;;2091084;28;20036;-71
2023/05/05 02:55:51;;;;;;;6.50;4.82;;;17.30;99.90;;;;;;2090951;28;20053;-70
2023/05/05 02:56:53;;;;;;;6.28;4.93;;;17.30;99.90;;;;;;2090862;28;20024;-70
2023/05/05 02:58:06;;;;;;;5.75;5.20;;;17.30;99.90;;;;;;2090801;28;20099;-70
2023/05/05 02:59:32;;;;;;;7.88;5.10;;;17.30;99.90;;;;;;2092419;28;20020;-71
2023/05/05 03:00:39;;;;;;;6.28;5.18;;;17.30;99.90;;;;;;2093696;28;20046;-70
2023/05/05 03:02:13;;;;;;;7.93;5.05;;;17.20;99.90;;;;;;2093737;28;20025;-70
2023/05/05 03:03:37;;;;;;;9.70;6.18;;;17.20;99.90;;;;;;2093119;28;20044;-71
2023/05/05 03:04:41;;;;;;;6.70;5.57;;;17.20;99.90;;;;;;2092239;28;20083;-70
2023/05/05 03:05:49;;;;;;;9.25;5.30;;;17.20;99.90;;;;;;2094697;28;20028;-70
2023/05/05 03:06:53;;;;;;;15.57;7.07;;;17.20;99.90;;;;;;2095515;28;20127;-71
2023/05/05 03:08:15;;;;;;;6.22;5.63;;;17.20;99.90;;;;;;2091681;28;20029;-71
2023/05/05 03:09:29;;;;;;;6.30;5.65;;;17.20;99.90;;;;;;2093026;28;20027;-71
2023/05/05 03:10:38;;;;;;;7.10;5.63;;;17.20;99.90;;;;;;2092320;28;20423;-71
2023/05/05 03:12:03;;;;;;;6.32;5.13;;;17.20;99.90;;;;;;2094509;28;20397;-71
2023/05/05 03:13:07;;;;;;;8.68;5.60;;;17.20;99.90;;;;;;2092473;28;20400;-70
2023/05/05 03:14:17;;;;;;;10.63;6.10;;;17.10;99.90;;;;;;2092390;28;20110;-71
2023/05/05 03:15:21;;;;;;;6.57;5.95;;;17.20;99.90;;;;;;2093166;28;20056;-71
2023/05/05 03:16:23;;;;;;;7.35;6.55;;;17.20;99.90;;;;;;2093848;28;20021;-70
2023/05/05 03:17:26;;;;;;;9.50;6.10;;;17.20;99.90;;;;;;2091701;28;20388;-70
2023/05/05 03:18:28;;;;;;;7.20;6.55;;;17.20;99.90;;;;;;2091722;28;20032;-71
2023/05/05 03:19:30;;;;;;;7.65;6.85;;;17.20;99.90;;;;;;2092595;28;20123;-71
2023/05/05 03:20:31;;;;;;;9.35;6.00;;;17.20;99.90;;;;;;2091791;28;20042;-70
2023/05/05 03:21:32;;;;;;;8.18;6.32;;;17.20;99.90;;;;;;2094126;28;20634;-70
2023/05/05 03:22:37;;;;;;;8.75;6.55;;;17.20;99.90;;;;;;2092076;28;20504;-70
2023/05/05 03:23:37;;;;;;;10.50;6.95;;;17.20;99.90;;;;;;2100055;28;20032;-71
2023/05/05 03:24:38;;;;;;;7.78;6.97;;;17.20;99.90;;;;;;2094662;28;20055;-71
2023/05/05 03:25:42;;;;;;;7.78;6.97;;;17.20;99.90;;;;;;2088544;28;20026;-71
2023/05/05 03:26:44;;;;;;;9.10;8.10;;;17.20;99.90;;;;;;2093646;28;20021;-71
2023/05/05 03:27:45;;;;;;;10.88;7.65;;;17.20;99.90;;;;;;2095372;28;20021;-71
2023/05/05 03:28:45;;;;;;;7.97;7.20;;;17.20;99.90;;;;;;2093667;28;20036;-70
2023/05/05 03:29:46;;;;;;;8.18;7.22;;;17.20;99.90;;;;;;2092341;28;20063;-71
2023/05/05 03:30:46;;;;;;;11.15;8.23;;;17.20;99.90;;;;;;2093452;28;20115;-71
2023/05/05 03:31:48;;;;;;;8.57;7.50;;;17.20;99.90;;;;;;2092298;28;20025;-70
2023/05/05 03:32:48;;;;;;;10.50;7.80;;;17.30;99.90;;;;;;2095231;28;20392;-70
2023/05/05 03:33:49;;;;;;;11.10;8.43;;;17.20;99.90;;;;;;2093936;28;20099;-70
2023/05/05 03:34:49;;;;;;;10.68;8.55;;;17.30;99.90;;;;;;2092749;28;20116;-71
2023/05/05 03:35:50;;;;;;;9.23;7.68;;;17.30;99.90;;;;;;2091708;28;20051;-70
2023/05/05 03:36:50;;;;;;;9.45;8.55;;;17.30;99.90;;;;;;2090910;28;20029;-71
2023/05/05 03:37:51;;;;;;;8.18;7.53;;;17.30;99.90;;;;;;2090847;28;20127;-71
2023/05/05 03:38:51;;;;;;;10.50;8.63;;;17.30;99.90;;;;;;2093246;28;20032;-70
2023/05/05 03:39:52;;;;;;;8.27;7.55;;;17.30;99.90;;;;;;2089288;28;20139;-71
2023/05/05 03:40:52;;;;;;;9.57;8.50;;;17.30;99.90;;;;;;2091971;28;20024;-71
2023/05/05 03:41:53;;;;;;;9.45;8.52;;;17.30;99.90;;;;;;2092922;28;20036;-70
2023/05/05 03:42:53;;;;;;;11.65;9.10;;;17.30;99.90;;;;;;2090029;28;20048;-70
2023/05/05 03:43:54;;;;;;;11.75;8.70;;;17.30;99.90;;;;;;2091152;28;20036;-70
2023/05/05 03:44:55;;;;;;;11.20;8.88;;;17.30;99.90;;;;;;2089014;28;20032;-71
2023/05/05 03:45:56;;;;;;;10.00;7.93;;;17.30;99.90;;;;;;2090770;28;20020;-71
2023/05/05 03:46:56;;;;;;;11.43;9.10;;;17.30;99.90;;;;;;2091013;28;20496;-70
2023/05/05 03:47:57;;;;;;;12.30;9.07;;;17.30;99.90;;;;;;2090362;28;21225;-70
2023/05/05 03:48:57;;;;;;;10.10;8.70;;;17.30;99.90;;;;;;2093257;28;20053;-71
2023/05/05 03:49:59;;;;;;;9.60;8.57;;;17.30;99.90;;;;;;2091373;28;20017;-70
2023/05/05 03:51:00;;;;;;;10.55;9.45;;;17.30;99.90;;;;;;2091814;28;20492;-71
2023/05/05 03:52:01;;;;;;;12.60;9.90;;;17.30;99.90;;;;;;2094354;28;20381;-70
2023/05/05 03:53:01;;;;;;;10.10;9.18;;;17.30;99.90;;;;;;2092710;28;20087;-71
2023/05/05 03:54:02;;;;;;;13.73;10.10;;;17.30;99.90;;;;;;2095610;28;20073;-71
2023/05/05 03:55:03;;;;;;;11.32;10.20;;;17.30;99.90;;;;;;2095561;28;20449;-71
2023/05/05 03:56:03;;;;;;;13.05;10.18;;;17.30;99.90;;;;;;2092525;28;20162;-71
2023/05/05 03:57:04;;;;;;;12.18;10.77;;;17.30;99.90;;;;;;2093871;28;20036;-70
2023/05/05 03:58:05;;;;;;;12.98;10.65;;;17.30;99.90;;;;;;2093407;28;20083;-70
2023/05/05 03:59:05;;;;;;;12.15;10.80;;;17.30;99.90;;;;;;2094693;28;20017;-71
2023/05/05 04:00:09;;;;;;;10.70;9.75;;;17.30;99.90;;;;;;2094966;28;20031;-71
2023/05/05 04:01:10;;;;;;;11.75;10.23;;;17.30;99.90;;;;;;2093653;28;20389;-71
2023/05/05 04:02:11;;;;;;;11.85;10.75;;;17.30;99.90;;;;;;2094415;28;20055;-71
2023/05/05 04:03:11;;;;;;;11.68;10.50;;;17.30;99.90;;;;;;2095228;28;20033;-71
2023/05/05 04:04:12;;;;;;;13.38;11.27;;;17.30;99.90;;;;;;2103285;28;20016;-71
2023/05/05 04:05:12;;;;;;;13.38;10.90;;;17.30;99.90;;;;;;2104701;28;20032;-71
2023/05/05 04:06:13;;;;;;;12.27;11.10;;;17.30;99.90;;;;;;2094739;28;20475;-71
2023/05/05 04:07:13;;;;;;;12.77;11.48;;;17.30;99.90;;;;;;2092768;28;20101;-71
2023/05/05 04:08:14;;;;;;;12.63;11.40;;;17.30;99.90;;;;;;2092812;28;20399;-71
2023/05/05 04:09:15;;;;;;;12.32;11.02;;;17.30;99.90;;;;;;2092711;28;20036;-71
2023/05/05 04:10:15;;;;;;;12.82;11.43;;;17.30;99.90;;;;;;2094064;28;20047;-71
2023/05/05 04:11:16;;;;;;;13.18;11.80;;;17.20;99.90;;;;;;2093625;28;20017;-71
2023/05/05 04:12:16;;;;;;;13.02;11.57;;;17.30;99.90;;;;;;2092401;28;20036;-71
2023/05/05 04:13:17;;;;;;;16.65;11.40;;;17.30;99.90;;;;;;2091882;28;20056;-71
2023/05/05 04:14:17;;;;;;;14.70;11.98;;;17.20;99.90;;;;;;2093121;28;20017;-71
2023/05/05 04:15:18;;;;;;;14.98;11.40;;;17.20;99.90;;;;;;2094061;28;20005;-71
2023/05/05 04:16:19;;;;;;;12.82;10.70;;;17.20;99.90;;;;;;2095267;28;20047;-71
2023/05/05 04:17:19;;;;;;;12.52;11.23;;;17.20;99.90;;;;;;2092728;28;20025;-71
2023/05/05 04:18:20;;;;;;;13.27;11.88;;;17.20;99.90;;;;;;2094434;28;20040;-71
2023/05/05 04:19:20;;;;;;;13.15;11.85;;;17.20;99.90;;;;;;2092103;28;20027;-71
2023/05/05 04:20:21;;;;;;;15.02;12.02;;;17.20;99.90;;;;;;2093597;28;20086;-71
2023/05/05 04:21:21;;;;;;;13.88;12.48;;;17.20;99.90;;;;;;2096742;28;20060;-71
2023/05/05 04:22:22;;;;;;;15.88;12.13;;;17.20;99.90;;;;;;2096857;28;20502;-71
2023/05/05 04:23:22;;;;;;;13.73;11.75;;;17.20;99.90;;;;;;2096404;28;20555;-71
2023/05/05 04:24:24;;;;;;;13.35;11.70;;;17.20;99.90;;;;;;2096158;28;20044;-71
2023/05/05 04:25:25;;;;;;;13.55;12.07;;;17.10;99.90;;;;;;2093587;28;20490;-71
2023/05/05 04:26:26;;;;;;;13.05;11.75;;;17.10;99.90;;;;;;2092944;28;20392;-71
2023/05/05 04:27:28;;;;;;;15.10;11.68;;;17.10;99.90;;;;;;2093618;28;20108;-71
2023/05/05 04:28:29;;;;;;;13.50;12.02;;;17.20;99.90;;;;;;2096779;28;21813;-71
2023/05/05 04:29:29;;;;;;;14.07;11.98;;;17.10;99.90;;;;;;2096592;28;20063;-71
2023/05/05 04:30:30;;;;;;;14.57;12.05;;;17.10;99.90;;;;;;2095255;28;20021;-71
2023/05/05 04:31:31;;;;;;;15.32;12.63;;;17.10;99.90;;;;;;2095280;28;20099;-71
2023/05/05 04:32:31;;;;;;;15.80;11.65;;;17.10;99.90;;;;;;2095730;28;20023;-71
2023/05/05 04:33:32;;;;;;;14.63;11.27;;;17.10;99.90;;;;;;2096810;28;20028;-71
2023/05/05 04:34:32;;;;;;;14.02;11.98;;;17.10;99.90;;;;;;2096863;28;20685;-71
2023/05/05 04:35:33;;;;;;;12.25;10.75;;;17.10;99.90;;;;;;2092493;28;20146;-71
2023/05/05 04:36:33;;;;;;;17.23;11.13;;;17.10;99.90;;;;;;2095355;28;20021;-71
2023/05/05 04:37:34;;;;;;;17.70;12.13;;;17.10;99.90;;;;;;2094651;28;20028;-71
2023/05/05 04:38:35;;;;;;;11.32;10.20;;;17.10;99.90;;;;;;2093266;28;20602;-71
2023/05/05 04:39:35;;;;;;;12.90;10.32;;;17.10;99.90;;;;;;2096437;28;20016;-71
2023/05/05 04:40:40;;;;;;;12.40;11.07;;;17.10;99.90;;;;;;2092841;28;20017;-71
2023/05/05 04:41:40;;;;;;;13.27;10.35;;;17.10;99.90;;;;;;2093775;28;20094;-71
2023/05/05 04:42:41;;;;;;;14.20;11.57;;;17.10;99.90;;;;;;2094282;28;20118;-71
2023/05/05 04:43:41;;;;;;;12.50;11.07;;;17.00;99.90;;;;;;2093380;28;20028;-71
2023/05/05 04:44:42;;;;;;;12.32;11.18;;;17.10;99.90;;;;;;2090679;28;20111;-71
2023/05/05 04:45:51;;;;;;;12.73;11.40;;;17.10;99.90;;;;;;2091562;28;20070;-71
2023/05/05 04:46:52;;;;;;;15.48;11.10;;;17.00;99.90;;;;;;2090518;28;20028;-71
2023/05/05 04:47:52;;;;;;;12.90;11.65;;;17.00;99.90;;;;;;2091336;28;20029;-71
2023/05/05 04:48:53;;;;;;;11.90;10.52;;;17.00;99.90;;;;;;2089833;28;20037;-71
2023/05/05 04:49:54;;;;;;;17.27;11.40;;;17.00;99.90;;;;;;2091356;28;20028;-71
2023/05/05 04:50:55;;;;;;;14.80;12.10;;;17.00;99.90;;;;;;2092761;28;20036;-71
2023/05/05 04:51:56;;;;;;;12.82;11.52;;;17.00;99.90;;;;;;2092213;28;20025;-71
2023/05/05 04:52:56;;;;;;;13.18;11.88;;;17.00;99.90;;;;;;2092388;28;20025;-71
2023/05/05 04:53:57;;;;;;;13.02;11.65;;;17.00;99.90;;;;;;2094658;28;20020;-71
2023/05/05 04:54:58;;;;;;;12.85;11.52;;;17.00;99.90;;;;;;2093465;28;20036;-71
2023/05/05 04:56:00;;;;;;;12.45;11.15;;;17.00;99.90;;;;;;2084766;28;20029;-71
2023/05/05 04:57:01;;;;;;;15.65;12.50;;;17.00;99.90;;;;;;2092682;28;20112;-71
2023/05/05 04:58:01;;;;;;;12.38;11.05;;;17.00;99.90;;;;;;2093624;28;20024;-71
2023/05/05 04:59:02;;;;;;;12.82;11.23;;;17.00;99.90;;;;;;2095585;28;20096;-71
2023/05/05 05:00:04;;;;;;;12.98;11.00;;;16.90;99.90;;;;;;2093544;28;20461;-71
2023/05/05 05:01:04;;;;;;;15.45;11.60;;;17.00;99.90;;;;;;2093395;28;20021;-71
2023/05/05 05:02:05;;;;;;;11.18;10.07;;;17.00;99.90;;;;;;2093787;28;20064;-71
2023/05/05 05:03:06;;;;;;;12.55;11.35;;;16.90;99.90;;;;;;2093980;28;20013;-71
2023/05/05 05:04:09;;;;;;;13.38;11.98;;;16.90;99.90;;;;;;2093470;28;20056;-71
2023/05/05 05:05:09;;;;;;;13.50;11.77;;;16.90;99.90;;;;;;2096450;28;20396;-71
2023/05/05 05:06:10;;;;;;;15.35;11.73;;;16.90;99.90;;;;;;2092331;28;20100;-71
2023/05/05 05:07:11;;;;;;;12.38;11.18;;;16.90;99.90;;;;;;2093509;28;20056;-71
2023/05/05 05:08:11;;;;;;;14.73;12.65;;;16.90;99.90;;;;;;2093699;28;20036;-71
2023/05/05 05:09:12;;;;;;;13.85;12.40;;;16.90;99.90;;;;;;2093904;28;20031;-71
2023/05/05 05:10:13;;;;;;;13.05;11.75;;;16.90;99.90;;;;;;2095152;28;20028;-71
2023/05/05 05:11:14;;;;;;;12.90;11.55;;;16.90;99.90;;;;;;2094407;28;20025;-71
2023/05/05 05:12:14;;;;;;;13.82;11.65;;;16.90;99.90;;;;;;2093141;28;20104;-71
2023/05/05 05:13:15;;;;;;;16.17;12.15;;;16.90;99.90;;;;;;2095601;28;20025;-71
2023/05/05 05:14:16;;;;;;;14.63;13.13;;;16.90;99.90;;;;;;2094867;28;20074;-71
2023/05/05 05:15:16;;;;;;;13.20;11.88;;;16.90;99.90;;;;;;2096893;28;20111;-71
2023/05/05 05:16:17;;;;;;;13.88;12.50;;;16.90;99.90;;;;;;2095618;28;20024;-71
2023/05/05 05:17:19;;;;;;;13.25;11.60;;;16.90;99.90;;;;;;2093195;28;20175;-71
2023/05/05 05:18:19;;;;;;;13.15;11.98;;;16.90;99.90;;;;;;2092967;28;20036;-71
2023/05/05 05:19:20;;;;;;;16.70;11.32;;;17.00;99.90;;;;;;2095730;28;20503;-71
2023/05/05 05:20:21;;;;;;;13.65;12.25;;;17.00;99.90;;;;;;2091788;28;21385;-71
2023/05/05 05:21:21;;;;;;;18.35;12.90;;;17.00;99.90;;;;;;2095115;28;20021;-71
2023/05/05 05:22:22;;;;;;;13.70;11.95;;;17.00;99.90;;;;;;2093300;28;20036;-71
2023/05/05 05:23:22;;;;;;;15.93;12.98;;;17.00;99.90;;;;;;2093146;28;20017;-71
2023/05/05 05:24:24;;;;;;;15.15;13.55;;;17.10;99.90;;;;;;2091573;28;20074;-71
2023/05/05 05:25:24;;;;;;;15.52;13.93;;;17.10;99.90;;;;;;2091835;28;20186;-71
2023/05/05 05:26:25;;;;;;;14.45;13.13;;;17.10;99.90;;;;;;2091497;28;20024;-71
2023/05/05 05:27:26;;;;;;;15.38;13.63;;;17.10;99.90;;;;;;2090713;28;20035;-71